sensor_id;sensor_type;location;lat;lon;timestamp;P1;durP1;ratioP1;P2;durP2;ratioP2
26620;SDS011;14253;44.840;10.444;2023-04-01T00:01:04;42.83;;;23.25;;
26620;SDS011;14253;44.840;10.444;2023-04-01T00:03:31;33.03;;;23.58;;
26620;SDS011;14253;44.840;10.444;2023-04-01T00:05:57;37.28;;;22.75;;
26620;SDS011;14253;44.840;10.444;2023-04-01T00:08:24;34.08;;;21.38;;
26620;SDS011;14253;44.840;10.444;2023-04-01T00:10:51;41.58;;;22.05;;
26620;SDS011;14253;44.840;10.444;2023-04-01T00:13:18;39.47;;;23.35;;
26620;SDS011;14253;44.840;10.444;2023-04-01T00:15:44;38.35;;;22.90;;
26620;SDS011;14253;44.840;10.444;2023-04-01T00:18:11;36.50;;;22.15;;
26620;SDS011;14253;44.840;10.444;2023-04-01T00:20:38;40.55;;;23.20;;
26620;SDS011;14253;44.840;10.444;2023-04-01T00:23:09;38.40;;;24.00;;
26620;SDS011;14253;44.840;10.444;2023-04-01T00:25:34;41.38;;;23.70;;
26620;SDS011;14253;44.840;10.444;2023-04-01T00:28:01;34.03;;;23.85;;
26620;SDS011;14253;44.840;10.444;2023-04-01T00:30:27;45.38;;;25.20;;
26620;SDS011;14253;44.840;10.444;2023-04-01T00:32:53;40.15;;;25.52;;
26620;SDS011;14253;44.840;10.444;2023-04-01T00:35:19;42.33;;;25.10;;
26620;SDS011;14253;44.840;10.444;2023-04-01T00:37:45;39.70;;;25.40;;
26620;SDS011;14253;44.840;10.444;2023-04-01T00:40:25;42.33;;;25.73;;
26620;SDS011;14253;44.840;10.444;2023-04-01T00:42:56;41.40;;;24.95;;
26620;SDS011;14253;44.840;10.444;2023-04-01T00:45:25;38.67;;;25.27;;
26620;SDS011;14253;44.840;10.444;2023-04-01T00:47:55;48.22;;;26.80;;
26620;SDS011;14253;44.840;10.444;2023-04-01T00:50:22;41.55;;;26.42;;
26620;SDS011;14253;44.840;10.444;2023-04-01T00:52:50;35.67;;;25.08;;
26620;SDS011;14253;44.840;10.444;2023-04-01T00:55:16;39.65;;;24.42;;
26620;SDS011;14253;44.840;10.444;2023-04-01T00:57:45;40.53;;;25.38;;
26620;SDS011;14253;44.840;10.444;2023-04-01T01:00:12;42.22;;;25.98;;
26620;SDS011;14253;44.840;10.444;2023-04-01T01:02:44;41.03;;;26.58;;
26620;SDS011;14253;44.840;10.444;2023-04-01T01:05:12;40.15;;;25.77;;
26620;SDS011;14253;44.840;10.444;2023-04-01T01:07:42;41.95;;;26.17;;
26620;SDS011;14253;44.840;10.444;2023-04-01T01:15:25;39.90;;;25.35;;
26620;SDS011;14253;44.840;10.444;2023-04-01T01:35:14;46.72;;;28.23;;
26620;SDS011;14253;44.840;10.444;2023-04-01T01:38:10;37.95;;;25.05;;
26620;SDS011;14253;44.840;10.444;2023-04-01T01:40:44;50.40;;;28.38;;
26620;SDS011;14253;44.840;10.444;2023-04-01T01:43:14;35.38;;;26.50;;
26620;SDS011;14253;44.840;10.444;2023-04-01T01:45:46;45.63;;;27.23;;
26620;SDS011;14253;44.840;10.444;2023-04-01T01:48:16;43.40;;;28.35;;
26620;SDS011;14253;44.840;10.444;2023-04-01T01:50:43;40.97;;;25.63;;
26620;SDS011;14253;44.840;10.444;2023-04-01T01:53:13;44.47;;;27.05;;
26620;SDS011;14253;44.840;10.444;2023-04-01T01:55:41;40.33;;;25.65;;
26620;SDS011;14253;44.840;10.444;2023-04-01T02:00:43;41.47;;;25.90;;
26620;SDS011;14253;44.840;10.444;2023-04-01T02:03:14;41.35;;;26.05;;
26620;SDS011;14253;44.840;10.444;2023-04-01T02:05:41;42.25;;;25.48;;
26620;SDS011;14253;44.840;10.444;2023-04-01T02:08:12;41.20;;;26.92;;
26620;SDS011;14253;44.840;10.444;2023-04-01T02:11:05;41.50;;;25.20;;
26620;SDS011;14253;44.840;10.444;2023-04-01T02:13:46;41.65;;;25.13;;
26620;SDS011;14253;44.840;10.444;2023-04-01T02:16:21;46.08;;;26.17;;
26620;SDS011;14253;44.840;10.444;2023-04-01T02:18:53;42.97;;;26.10;;
26620;SDS011;14253;44.840;10.444;2023-04-01T02:21:22;40.20;;;27.65;;
26620;SDS011;14253;44.840;10.444;2023-04-01T02:23:51;40.53;;;27.35;;
26620;SDS011;14253;44.840;10.444;2023-04-01T02:26:19;41.22;;;27.05;;
26620;SDS011;14253;44.840;10.444;2023-04-01T02:28:47;38.67;;;25.30;;
26620;SDS011;14253;44.840;10.444;2023-04-01T02:31:16;42.17;;;25.33;;
26620;SDS011;14253;44.840;10.444;2023-04-01T02:33:43;36.92;;;26.60;;
26620;SDS011;14253;44.840;10.444;2023-04-01T02:36:11;40.03;;;26.52;;
26620;SDS011;14253;44.840;10.444;2023-04-01T02:38:39;41.63;;;26.13;;
26620;SDS011;14253;44.840;10.444;2023-04-01T02:41:05;43.58;;;25.63;;
26620;SDS011;14253;44.840;10.444;2023-04-01T02:43:32;40.75;;;25.83;;
26620;SDS011;14253;44.840;10.444;2023-04-01T02:45:58;36.63;;;25.17;;
26620;SDS011;14253;44.840;10.444;2023-04-01T02:48:24;39.55;;;25.98;;
26620;SDS011;14253;44.840;10.444;2023-04-01T02:50:50;40.00;;;26.33;;
26620;SDS011;14253;44.840;10.444;2023-04-01T02:53:16;36.33;;;25.98;;
26620;SDS011;14253;44.840;10.444;2023-04-01T02:55:42;41.10;;;25.95;;
26620;SDS011;14253;44.840;10.444;2023-04-01T02:58:08;40.35;;;24.48;;
26620;SDS011;14253;44.840;10.444;2023-04-01T03:00:34;43.78;;;26.02;;
26620;SDS011;14253;44.840;10.444;2023-04-01T03:03:00;46.50;;;26.67;;
26620;SDS011;14253;44.840;10.444;2023-04-01T03:05:27;39.95;;;24.83;;
26620;SDS011;14253;44.840;10.444;2023-04-01T03:07:53;33.97;;;19.63;;
26620;SDS011;14253;44.840;10.444;2023-04-01T03:10:20;33.75;;;23.85;;
26620;SDS011;14253;44.840;10.444;2023-04-01T03:12:46;37.78;;;25.35;;
26620;SDS011;14253;44.840;10.444;2023-04-01T03:15:12;35.55;;;25.00;;
26620;SDS011;14253;44.840;10.444;2023-04-01T03:17:41;40.00;;;27.85;;
26620;SDS011;14253;44.840;10.444;2023-04-01T03:20:09;36.20;;;25.40;;
26620;SDS011;14253;44.840;10.444;2023-04-01T03:22:35;47.58;;;27.40;;
26620;SDS011;14253;44.840;10.444;2023-04-01T03:25:03;40.67;;;26.52;;
26620;SDS011;14253;44.840;10.444;2023-04-01T03:27:31;39.17;;;25.73;;
26620;SDS011;14253;44.840;10.444;2023-04-01T03:29:57;40.40;;;26.73;;
26620;SDS011;14253;44.840;10.444;2023-04-01T03:32:23;46.63;;;26.98;;
26620;SDS011;14253;44.840;10.444;2023-04-01T03:34:49;37.10;;;26.20;;
26620;SDS011;14253;44.840;10.444;2023-04-01T03:37:15;44.05;;;28.35;;
26620;SDS011;14253;44.840;10.444;2023-04-01T03:39:41;40.28;;;26.17;;
26620;SDS011;14253;44.840;10.444;2023-04-01T03:42:07;34.30;;;24.85;;
26620;SDS011;14253;44.840;10.444;2023-04-01T03:44:33;36.65;;;26.88;;
26620;SDS011;14253;44.840;10.444;2023-04-01T03:47:00;38.22;;;24.05;;
26620;SDS011;14253;44.840;10.444;2023-04-01T03:49:26;42.53;;;25.27;;
26620;SDS011;14253;44.840;10.444;2023-04-01T03:51:52;31.65;;;21.23;;
26620;SDS011;14253;44.840;10.444;2023-04-01T03:54:17;42.47;;;18.67;;
26620;SDS011;14253;44.840;10.444;2023-04-01T03:56:45;26.15;;;19.23;;
26620;SDS011;14253;44.840;10.444;2023-04-01T03:59:12;30.02;;;20.05;;
26620;SDS011;14253;44.840;10.444;2023-04-01T04:01:39;49.70;;;22.42;;
26620;SDS011;14253;44.840;10.444;2023-04-01T04:04:05;34.97;;;24.15;;
26620;SDS011;14253;44.840;10.444;2023-04-01T04:06:32;33.80;;;22.98;;
26620;SDS011;14253;44.840;10.444;2023-04-01T04:08:58;30.20;;;20.63;;
26620;SDS011;14253;44.840;10.444;2023-04-01T04:11:26;27.23;;;20.70;;
26620;SDS011;14253;44.840;10.444;2023-04-01T04:13:52;28.20;;;20.38;;
26620;SDS011;14253;44.840;10.444;2023-04-01T04:16:19;30.52;;;20.80;;
26620;SDS011;14253;44.840;10.444;2023-04-01T04:18:51;31.70;;;20.15;;
26620;SDS011;14253;44.840;10.444;2023-04-01T04:21:17;38.83;;;22.70;;
26620;SDS011;14253;44.840;10.444;2023-04-01T04:23:44;35.53;;;24.00;;
26620;SDS011;14253;44.840;10.444;2023-04-01T04:26:13;60.92;;;22.67;;
26620;SDS011;14253;44.840;10.444;2023-04-01T04:28:41;37.90;;;20.10;;
26620;SDS011;14253;44.840;10.444;2023-04-01T04:31:07;28.35;;;20.35;;
26620;SDS011;14253;44.840;10.444;2023-04-01T04:33:34;30.90;;;21.70;;
26620;SDS011;14253;44.840;10.444;2023-04-01T04:36:01;33.70;;;24.15;;
26620;SDS011;14253;44.840;10.444;2023-04-01T04:38:29;37.72;;;25.45;;
26620;SDS011;14253;44.840;10.444;2023-04-01T04:40:55;34.78;;;23.83;;
26620;SDS011;14253;44.840;10.444;2023-04-01T04:43:21;36.95;;;24.67;;
26620;SDS011;14253;44.840;10.444;2023-04-01T04:45:48;38.50;;;25.35;;
26620;SDS011;14253;44.840;10.444;2023-04-01T04:48:15;35.60;;;23.70;;
26620;SDS011;14253;44.840;10.444;2023-04-01T04:50:44;34.67;;;25.17;;
26620;SDS011;14253;44.840;10.444;2023-04-01T04:53:16;44.55;;;27.30;;
26620;SDS011;14253;44.840;10.444;2023-04-01T04:55:44;41.90;;;24.75;;
26620;SDS011;14253;44.840;10.444;2023-04-01T04:58:40;34.33;;;23.52;;
26620;SDS011;14253;44.840;10.444;2023-04-01T05:01:10;29.77;;;22.23;;
26620;SDS011;14253;44.840;10.444;2023-04-01T05:03:38;36.03;;;23.55;;
26620;SDS011;14253;44.840;10.444;2023-04-01T05:06:05;36.42;;;23.20;;
26620;SDS011;14253;44.840;10.444;2023-04-01T05:08:33;35.78;;;21.92;;
26620;SDS011;14253;44.840;10.444;2023-04-01T05:11:00;34.30;;;22.20;;
26620;SDS011;14253;44.840;10.444;2023-04-01T05:13:28;34.17;;;22.67;;
26620;SDS011;14253;44.840;10.444;2023-04-01T05:15:54;35.42;;;21.30;;
26620;SDS011;14253;44.840;10.444;2023-04-01T05:18:20;33.22;;;20.58;;
26620;SDS011;14253;44.840;10.444;2023-04-01T05:20:47;38.75;;;23.85;;
26620;SDS011;14253;44.840;10.444;2023-04-01T05:23:18;39.40;;;22.77;;
26620;SDS011;14253;44.840;10.444;2023-04-01T05:25:48;37.08;;;22.58;;
26620;SDS011;14253;44.840;10.444;2023-04-01T05:28:16;41.22;;;25.27;;
26620;SDS011;14253;44.840;10.444;2023-04-01T05:30:45;41.15;;;23.88;;
26620;SDS011;14253;44.840;10.444;2023-04-01T05:33:25;44.65;;;27.30;;
26620;SDS011;14253;44.840;10.444;2023-04-01T05:35:51;41.38;;;29.52;;
26620;SDS011;14253;44.840;10.444;2023-04-01T05:38:18;43.63;;;29.05;;
26620;SDS011;14253;44.840;10.444;2023-04-01T05:40:44;40.33;;;26.67;;
26620;SDS011;14253;44.840;10.444;2023-04-01T05:43:11;34.13;;;25.63;;
26620;SDS011;14253;44.840;10.444;2023-04-01T05:45:37;36.15;;;24.95;;
26620;SDS011;14253;44.840;10.444;2023-04-01T05:48:12;35.20;;;25.02;;
26620;SDS011;14253;44.840;10.444;2023-04-01T05:50:40;42.35;;;24.92;;
26620;SDS011;14253;44.840;10.444;2023-04-01T05:53:08;32.22;;;22.58;;
26620;SDS011;14253;44.840;10.444;2023-04-01T05:55:36;32.38;;;21.58;;
26620;SDS011;14253;44.840;10.444;2023-04-01T05:58:02;32.15;;;22.23;;
26620;SDS011;14253;44.840;10.444;2023-04-01T06:00:29;38.72;;;21.85;;
26620;SDS011;14253;44.840;10.444;2023-04-01T06:02:58;30.73;;;20.08;;
26620;SDS011;14253;44.840;10.444;2023-04-01T06:05:27;31.27;;;19.75;;
26620;SDS011;14253;44.840;10.444;2023-04-01T06:07:58;28.50;;;17.67;;
26620;SDS011;14253;44.840;10.444;2023-04-01T06:10:43;29.10;;;18.70;;
26620;SDS011;14253;44.840;10.444;2023-04-01T06:16:15;29.90;;;19.45;;
26620;SDS011;14253;44.840;10.444;2023-04-01T06:21:36;34.85;;;21.08;;
26620;SDS011;14253;44.840;10.444;2023-04-01T06:52:29;28.02;;;19.73;;
26620;SDS011;14253;44.840;10.444;2023-04-01T07:01:32;27.17;;;18.55;;
26620;SDS011;14253;44.840;10.444;2023-04-01T07:04:11;28.85;;;17.45;;
26620;SDS011;14253;44.840;10.444;2023-04-01T07:07:21;27.15;;;17.95;;
26620;SDS011;14253;44.840;10.444;2023-04-01T07:09:56;26.55;;;17.42;;
26620;SDS011;14253;44.840;10.444;2023-04-01T07:15:31;26.08;;;17.25;;
26620;SDS011;14253;44.840;10.444;2023-04-01T07:18:12;21.27;;;17.00;;
26620;SDS011;14253;44.840;10.444;2023-04-01T07:20:46;28.70;;;18.80;;
26620;SDS011;14253;44.840;10.444;2023-04-01T07:29:49;24.92;;;15.55;;
26620;SDS011;14253;44.840;10.444;2023-04-01T07:32:31;23.27;;;14.07;;
26620;SDS011;14253;44.840;10.444;2023-04-01T07:57:49;19.30;;;13.98;;
26620;SDS011;14253;44.840;10.444;2023-04-01T08:00:21;19.73;;;13.75;;
26620;SDS011;14253;44.840;10.444;2023-04-01T08:03:49;20.60;;;12.50;;
26620;SDS011;14253;44.840;10.444;2023-04-01T08:07:09;19.77;;;13.85;;
26620;SDS011;14253;44.840;10.444;2023-04-01T08:17:51;19.20;;;12.45;;
26620;SDS011;14253;44.840;10.444;2023-04-01T08:20:51;20.67;;;13.18;;
26620;SDS011;14253;44.840;10.444;2023-04-01T08:29:17;20.30;;;11.93;;
26620;SDS011;14253;44.840;10.444;2023-04-01T08:34:15;19.02;;;11.52;;
26620;SDS011;14253;44.840;10.444;2023-04-01T08:36:47;14.90;;;11.30;;
26620;SDS011;14253;44.840;10.444;2023-04-01T08:44:58;18.73;;;11.65;;
26620;SDS011;14253;44.840;10.444;2023-04-01T08:57:26;17.50;;;12.52;;
26620;SDS011;14253;44.840;10.444;2023-04-01T09:00:53;18.15;;;12.35;;
26620;SDS011;14253;44.840;10.444;2023-04-01T09:23:07;16.70;;;11.75;;
26620;SDS011;14253;44.840;10.444;2023-04-01T09:29:05;17.45;;;11.35;;
26620;SDS011;14253;44.840;10.444;2023-04-01T10:05:30;16.08;;;8.45;;
26620;SDS011;14253;44.840;10.444;2023-04-01T10:08:51;13.27;;;7.80;;
26620;SDS011;14253;44.840;10.444;2023-04-01T10:12:01;11.80;;;8.05;;
26620;SDS011;14253;44.840;10.444;2023-04-01T10:30:55;8.65;;;6.82;;
26620;SDS011;14253;44.840;10.444;2023-04-01T10:45:45;9.20;;;4.60;;
26620;SDS011;14253;44.840;10.444;2023-04-01T10:48:57;5.25;;;3.25;;
26620;SDS011;14253;44.840;10.444;2023-04-01T11:08:04;4.60;;;1.33;;
26620;SDS011;14253;44.840;10.444;2023-04-01T11:43:37;0.98;;;0.00;;
26620;SDS011;14253;44.840;10.444;2023-04-01T11:46:29;0.63;;;0.22;;
26620;SDS011;14253;44.840;10.444;2023-04-01T11:55:15;0.00;;;0.00;;
26620;SDS011;14253;44.840;10.444;2023-04-01T12:03:30;1.48;;;0.03;;
26620;SDS011;14253;44.840;10.444;2023-04-01T12:06:13;0.17;;;0.05;;
26620;SDS011;14253;44.840;10.444;2023-04-01T12:08:50;1.95;;;0.10;;
26620;SDS011;14253;44.840;10.444;2023-04-01T12:14:39;2.30;;;0.10;;
26620;SDS011;14253;44.840;10.444;2023-04-01T12:17:27;2.75;;;0.10;;
26620;SDS011;14253;44.840;10.444;2023-04-01T12:22:46;0.08;;;0.00;;
26620;SDS011;14253;44.840;10.444;2023-04-01T12:31:04;0.32;;;0.13;;
26620;SDS011;14253;44.840;10.444;2023-04-01T12:34:21;0.10;;;0.10;;
26620;SDS011;14253;44.840;10.444;2023-04-01T12:37:19;0.45;;;0.17;;
26620;SDS011;14253;44.840;10.444;2023-04-01T12:45:28;0.10;;;0.00;;
26620;SDS011;14253;44.840;10.444;2023-04-01T12:50:37;2.83;;;0.10;;
26620;SDS011;14253;44.840;10.444;2023-04-01T12:55:48;3.55;;;0.30;;
26620;SDS011;14253;44.840;10.444;2023-04-01T13:04:15;0.20;;;0.10;;
26620;SDS011;14253;44.840;10.444;2023-04-01T13:07:16;0.30;;;0.10;;
26620;SDS011;14253;44.840;10.444;2023-04-01T13:15:20;2.78;;;0.10;;
26620;SDS011;14253;44.840;10.444;2023-04-01T13:20:54;0.35;;;0.10;;
26620;SDS011;14253;44.840;10.444;2023-04-01T13:40:36;1.92;;;0.30;;
26620;SDS011;14253;44.840;10.444;2023-04-01T13:43:12;0.05;;;0.03;;
26620;SDS011;14253;44.840;10.444;2023-04-01T13:48:49;0.15;;;0.03;;
26620;SDS011;14253;44.840;10.444;2023-04-01T13:57:13;0.80;;;0.20;;
26620;SDS011;14253;44.840;10.444;2023-04-01T14:16:02;0.13;;;0.10;;
26620;SDS011;14253;44.840;10.444;2023-04-01T14:35:11;3.67;;;0.68;;
26620;SDS011;14253;44.840;10.444;2023-04-01T14:49:04;0.73;;;0.20;;
26620;SDS011;14253;44.840;10.444;2023-04-01T14:51:42;0.30;;;0.13;;
26620;SDS011;14253;44.840;10.444;2023-04-01T14:56:43;2.28;;;0.20;;
26620;SDS011;14253;44.840;10.444;2023-04-01T14:59:14;2.63;;;0.20;;
26620;SDS011;14253;44.840;10.444;2023-04-01T15:01:46;1.70;;;0.38;;
26620;SDS011;14253;44.840;10.444;2023-04-01T15:04:35;2.25;;;0.32;;
26620;SDS011;14253;44.840;10.444;2023-04-01T15:13:15;0.47;;;0.30;;
26620;SDS011;14253;44.840;10.444;2023-04-01T15:16:18;1.35;;;0.20;;
26620;SDS011;14253;44.840;10.444;2023-04-01T15:19:23;0.17;;;0.10;;
26620;SDS011;14253;44.840;10.444;2023-04-01T15:22:13;0.95;;;0.22;;
26620;SDS011;14253;44.840;10.444;2023-04-01T15:28:05;0.70;;;0.20;;
26620;SDS011;14253;44.840;10.444;2023-04-01T15:33:20;0.60;;;0.10;;
26620;SDS011;14253;44.840;10.444;2023-04-01T15:46:52;0.95;;;0.30;;
26620;SDS011;14253;44.840;10.444;2023-04-01T15:49:27;0.63;;;0.20;;
26620;SDS011;14253;44.840;10.444;2023-04-01T15:52:16;0.70;;;0.20;;
26620;SDS011;14253;44.840;10.444;2023-04-01T16:00:13;1.02;;;0.28;;
26620;SDS011;14253;44.840;10.444;2023-04-01T16:02:48;1.58;;;0.28;;
26620;SDS011;14253;44.840;10.444;2023-04-01T16:08:28;0.30;;;0.10;;
26620;SDS011;14253;44.840;10.444;2023-04-01T16:14:35;0.52;;;0.00;;
26620;SDS011;14253;44.840;10.444;2023-04-01T16:22:40;1.75;;;0.10;;
26620;SDS011;14253;44.840;10.444;2023-04-01T16:28:14;0.60;;;0.20;;
26620;SDS011;14253;44.840;10.444;2023-04-01T16:30:59;1.65;;;0.10;;
26620;SDS011;14253;44.840;10.444;2023-04-01T16:42:26;7.50;;;0.75;;
26620;SDS011;14253;44.840;10.444;2023-04-01T16:47:46;2.05;;;0.55;;
26620;SDS011;14253;44.840;10.444;2023-04-01T16:50:23;4.35;;;0.38;;
26620;SDS011;14253;44.840;10.444;2023-04-01T17:01:21;4.47;;;0.45;;
26620;SDS011;14253;44.840;10.444;2023-04-01T17:06:49;1.48;;;0.70;;
26620;SDS011;14253;44.840;10.444;2023-04-01T17:17:23;3.53;;;0.65;;
26620;SDS011;14253;44.840;10.444;2023-04-01T17:36:33;2.70;;;0.70;;
26620;SDS011;14253;44.840;10.444;2023-04-01T17:39:19;3.78;;;1.33;;
26620;SDS011;14253;44.840;10.444;2023-04-01T17:45:24;2.88;;;0.90;;
26620;SDS011;14253;44.840;10.444;2023-04-01T17:53:51;2.53;;;0.80;;
26620;SDS011;14253;44.840;10.444;2023-04-01T17:56:34;2.60;;;0.90;;
26620;SDS011;14253;44.840;10.444;2023-04-01T18:02:20;4.95;;;0.90;;
26620;SDS011;14253;44.840;10.444;2023-04-01T18:10:50;3.97;;;1.08;;
26620;SDS011;14253;44.840;10.444;2023-04-01T18:16:30;3.58;;;0.80;;
26620;SDS011;14253;44.840;10.444;2023-04-01T18:19:18;4.13;;;1.00;;
26620;SDS011;14253;44.840;10.444;2023-04-01T18:27:56;5.38;;;1.10;;
26620;SDS011;14253;44.840;10.444;2023-04-01T18:30:43;4.78;;;1.05;;
26620;SDS011;14253;44.840;10.444;2023-04-01T18:36:18;5.53;;;1.00;;
26620;SDS011;14253;44.840;10.444;2023-04-01T18:49:59;3.58;;;1.30;;
26620;SDS011;14253;44.840;10.444;2023-04-01T18:52:46;2.90;;;1.20;;
26620;SDS011;14253;44.840;10.444;2023-04-01T18:55:46;4.95;;;1.52;;
26620;SDS011;14253;44.840;10.444;2023-04-01T18:58:25;6.22;;;1.75;;
26620;SDS011;14253;44.840;10.444;2023-04-01T19:15:07;6.10;;;2.30;;
26620;SDS011;14253;44.840;10.444;2023-04-01T19:25:56;2.53;;;1.50;;
26620;SDS011;14253;44.840;10.444;2023-04-01T19:36:48;5.10;;;1.50;;
26620;SDS011;14253;44.840;10.444;2023-04-01T19:39:44;5.28;;;1.92;;
26620;SDS011;14253;44.840;10.444;2023-04-01T19:42:30;4.47;;;1.25;;
26620;SDS011;14253;44.840;10.444;2023-04-01T19:50:51;3.15;;;1.40;;
26620;SDS011;14253;44.840;10.444;2023-04-01T20:04:38;6.45;;;2.05;;
26620;SDS011;14253;44.840;10.444;2023-04-01T20:07:15;4.60;;;1.95;;
26620;SDS011;14253;44.840;10.444;2023-04-01T20:10:08;10.18;;;2.30;;
26620;SDS011;14253;44.840;10.444;2023-04-01T20:15:34;5.00;;;1.60;;
26620;SDS011;14253;44.840;10.444;2023-04-01T20:18:26;3.95;;;1.55;;
26620;SDS011;14253;44.840;10.444;2023-04-01T20:21:15;5.32;;;2.15;;
26620;SDS011;14253;44.840;10.444;2023-04-01T20:23:54;5.97;;;1.92;;
26620;SDS011;14253;44.840;10.444;2023-04-01T20:26:32;4.40;;;2.33;;
26620;SDS011;14253;44.840;10.444;2023-04-01T20:42:58;8.15;;;2.67;;
26620;SDS011;14253;44.840;10.444;2023-04-01T20:46:14;6.18;;;2.75;;
26620;SDS011;14253;44.840;10.444;2023-04-01T20:51:30;7.97;;;2.88;;
26620;SDS011;14253;44.840;10.444;2023-04-01T21:07:43;5.82;;;2.00;;
26620;SDS011;14253;44.840;10.444;2023-04-01T21:12:52;6.80;;;1.40;;
26620;SDS011;14253;44.840;10.444;2023-04-01T21:26:23;6.97;;;2.90;;
26620;SDS011;14253;44.840;10.444;2023-04-01T21:29:08;4.10;;;1.70;;
26620;SDS011;14253;44.840;10.444;2023-04-01T21:37:07;6.70;;;1.35;;
26620;SDS011;14253;44.840;10.444;2023-04-01T21:42:30;4.03;;;1.60;;
26620;SDS011;14253;44.840;10.444;2023-04-01T22:06:49;4.60;;;1.50;;
26620;SDS011;14253;44.840;10.444;2023-04-01T22:09:25;4.85;;;1.33;;
26620;SDS011;14253;44.840;10.444;2023-04-01T22:15:13;6.22;;;1.45;;
26620;SDS011;14253;44.840;10.444;2023-04-01T22:20:47;5.88;;;1.00;;
26620;SDS011;14253;44.840;10.444;2023-04-01T22:23:25;3.15;;;1.00;;
26620;SDS011;14253;44.840;10.444;2023-04-01T22:26:14;7.28;;;1.40;;
26620;SDS011;14253;44.840;10.444;2023-04-01T22:31:31;5.60;;;1.10;;
26620;SDS011;14253;44.840;10.444;2023-04-01T22:42:40;6.63;;;1.30;;
26620;SDS011;14253;44.840;10.444;2023-04-01T22:50:21;5.40;;;1.30;;
26620;SDS011;14253;44.840;10.444;2023-04-01T22:55:38;2.85;;;0.90;;
26620;SDS011;14253;44.840;10.444;2023-04-01T22:58:10;8.10;;;1.40;;
26620;SDS011;14253;44.840;10.444;2023-04-01T23:00:48;3.90;;;1.58;;
26620;SDS011;14253;44.840;10.444;2023-04-01T23:05:54;6.30;;;1.50;;
26620;SDS011;14253;44.840;10.444;2023-04-01T23:08:39;6.97;;;2.08;;
26620;SDS011;14253;44.840;10.444;2023-04-01T23:11:18;5.25;;;2.20;;
26620;SDS011;14253;44.840;10.444;2023-04-01T23:13:47;7.28;;;1.90;;
26620;SDS011;14253;44.840;10.444;2023-04-01T23:16:23;8.45;;;2.80;;
26620;SDS011;14253;44.840;10.444;2023-04-01T23:19:00;9.70;;;2.28;;
26620;SDS011;14253;44.840;10.444;2023-04-01T23:21:50;7.07;;;2.20;;
26620;SDS011;14253;44.840;10.444;2023-04-01T23:30:59;8.70;;;2.83;;
26620;SDS011;14253;44.840;10.444;2023-04-01T23:38:39;6.43;;;2.05;;
26620;SDS011;14253;44.840;10.444;2023-04-01T23:41:07;8.55;;;2.30;;
26620;SDS011;14253;44.840;10.444;2023-04-01T23:43:43;7.18;;;2.17;;
26620;SDS011;14253;44.840;10.444;2023-04-01T23:46:10;4.28;;;2.13;;
26620;SDS011;14253;44.840;10.444;2023-04-01T23:48:42;8.88;;;2.08;;
26620;SDS011;14253;44.840;10.444;2023-04-01T23:54:25;5.65;;;2.28;;
26620;SDS011;14253;44.840;10.444;2023-04-01T23:56:48;5.13;;;2.50;;
26620;SDS011;14253;44.840;10.444;2023-04-01T23:59:30;8.48;;;2.10;;
